Time;durP1;ratioP1;P1;durP2;ratioP2;P2;SDS_P1;SDS_P2;PMS_P1;PMS_P2;Temp;Humidity;BMP_temperature;BMP_pressure;BME280_temperature;BME280_humidity;BME280_pressure;Samples;Min_cycle;Max_cycle;Signal;HPM_P1;HPM_P2
2021/11/30 00:02:44;;;;;;;41.13;7.88;;;;;;;;;;21082882;28;20472;-60
2021/11/30 00:12:46;;;;;;;14.27;4.88;;;;;;;;;;21082316;28;20079;-60
2021/11/30 00:22:48;;;;;;;12.18;4.65;;;;;;;;;;21082367;28;20416;-62
2021/11/30 00:32:50;;;;;;;18.92;5.00;;;;;;;;;;21081515;28;20104;-61
2021/11/30 00:42:53;;;;;;;11.90;4.80;;;;;;;;;;21080038;28;20087;-60
2021/11/30 00:52:55;;;;;;;10.35;4.30;;;;;;;;;;21079439;28;20051;-60
2021/11/30 01:02:56;;;;;;;8.38;3.70;;;;;;;;;;21079324;28;20123;-61
2021/11/30 01:12:59;;;;;;;10.50;5.43;;;;;;;;;;21079707;28;20063;-61
2021/11/30 01:23:01;;;;;;;4.95;2.83;;;;;;;;;;21079744;28;20073;-59
2021/11/30 01:33:03;;;;;;;5.03;2.90;;;;;;;;;;21078256;28;20070;-60
2021/11/30 01:43:08;;;;;;;7.50;3.35;;;;;;;;;;21077146;28;20047;-60
2021/11/30 01:53:10;;;;;;;6.72;3.08;;;;;;;;;;21077203;28;20048;-60
2021/11/30 02:03:13;;;;;;;9.75;3.67;;;;;;;;;;21080014;28;20060;-60
2021/11/30 02:13:16;;;;;;;7.55;3.35;;;;;;;;;;21093107;28;20059;-60
2021/11/30 02:33:47;;;;;;;4.45;2.55;;;;;;;;;;21073079;28;20087;-60
2021/11/30 02:43:50;;;;;;;4.70;2.40;;;;;;;;;;21089064;28;20408;-59
2021/11/30 02:53:54;;;;;;;3.45;2.42;;;;;;;;;;21089312;28;20048;-60
2021/11/30 03:03:56;;;;;;;5.07;2.45;;;;;;;;;;21087621;28;20052;-59
2021/11/30 03:13:58;;;;;;;3.78;2.63;;;;;;;;;;21085762;28;20044;-59
2021/11/30 03:24:01;;;;;;;7.45;2.40;;;;;;;;;;21067842;28;20056;-59
2021/11/30 03:34:10;;;;;;;4.47;2.90;;;;;;;;;;21085103;28;20405;-60
2021/11/30 03:44:17;;;;;;;5.97;2.70;;;;;;;;;;21083496;28;20101;-60
2021/11/30 03:54:21;;;;;;;3.90;2.15;;;;;;;;;;21083165;28;20055;-58
2021/11/30 04:04:35;;;;;;;2.08;1.45;;;;;;;;;;21082531;28;20056;-59
2021/11/30 04:14:40;;;;;;;2.65;1.50;;;;;;;;;;21082645;28;20067;-59
2021/11/30 04:24:52;;;;;;;2.85;1.50;;;;;;;;;;21080863;28;20044;-60
2021/11/30 04:34:57;;;;;;;3.70;1.77;;;;;;;;;;21081093;28;20051;-60
2021/11/30 04:55:30;;;;;;;5.60;2.03;;;;;;;;;;21079783;28;20554;-58
2021/11/30 05:05:36;;;;;;;4.05;1.80;;;;;;;;;;21061527;28;20143;-59
2021/11/30 05:15:40;;;;;;;2.13;1.60;;;;;;;;;;21078141;28;20055;-60
2021/11/30 05:25:44;;;;;;;2.65;1.60;;;;;;;;;;21077737;28;20048;-60
2021/11/30 05:35:50;;;;;;;3.65;2.15;;;;;;;;;;21077574;28;20044;-63
2021/11/30 05:45:55;;;;;;;4.10;2.22;;;;;;;;;;21094697;28;20437;-60
2021/11/30 05:55:59;;;;;;;3.78;2.15;;;;;;;;;;21093622;28;20068;-60
2021/11/30 06:06:04;;;;;;;;;;;;;;;;;;21092621;28;20488;-59
2021/11/30 06:16:06;;;;;;;6.30;2.38;;;;;;;;;;21091388;28;20375;-60
2021/11/30 06:26:11;;;;;;;7.55;3.50;;;;;;;;;;21090787;28;20047;-60
2021/11/30 06:36:14;;;;;;;3.95;2.95;;;;;;;;;;21090027;28;20076;-60
2021/11/30 06:46:19;;;;;;;7.43;3.28;;;;;;;;;;21070983;28;20139;-59
2021/11/30 06:56:21;;;;;;;3.95;2.60;;;;;;;;;;21087810;28;20044;-58
2021/11/30 07:06:55;;;;;;;5.25;3.20;;;;;;;;;;21087576;28;20052;-59
2021/11/30 07:16:58;;;;;;;6.72;4.47;;;;;;;;;;21086473;28;20044;-59
2021/11/30 07:27:00;;;;;;;4.70;2.90;;;;;;;;;;21086283;28;20407;-59
2021/11/30 07:37:03;;;;;;;5.25;3.17;;;;;;;;;;21085058;28;20048;-58
2021/11/30 07:47:07;;;;;;;8.43;4.47;;;;;;;;;;21083834;28;20407;-59
2021/11/30 07:57:09;;;;;;;8.00;4.10;;;;;;;;;;21083234;28;20506;-59
2021/11/30 08:07:16;;;;;;;10.27;4.57;;;;;;;;;;21081484;28;20055;-60
2021/11/30 08:17:19;;;;;;;13.77;6.30;;;;;;;;;;21081983;28;20131;-58
2021/11/30 08:27:22;;;;;;;17.77;8.57;;;;;;;;;;21081552;28;20048;-58
2021/11/30 08:37:25;;;;;;;13.07;6.97;;;;;;;;;;21081829;28;20052;-59
2021/11/30 08:47:27;;;;;;;12.80;7.13;;;;;;;;;;21079386;28;20094;-59
2021/11/30 08:57:30;;;;;;;13.73;7.18;;;;;;;;;;21079157;28;20047;-60
2021/11/30 09:07:32;;;;;;;17.08;7.50;;;;;;;;;;21075288;28;20091;-60
2021/11/30 09:17:37;;;;;;;20.55;11.45;;;;;;;;;;21074608;28;20079;-59
2021/11/30 09:27:40;;;;;;;13.00;7.70;;;;;;;;;;21074623;28;20048;-60
2021/11/30 09:37:43;;;;;;;21.83;9.65;;;;;;;;;;21074421;28;20048;-61
2021/11/30 09:47:45;;;;;;;17.80;8.18;;;;;;;;;;21073423;28;20044;-59
2021/11/30 09:57:48;;;;;;;15.60;7.88;;;;;;;;;;21073414;28;20055;-59
2021/11/30 10:07:51;;;;;;;13.27;7.28;;;;;;;;;;21024254;28;1488658;-60
2021/11/30 10:18:14;;;;;;;13.77;7.20;;;;;;;;;;21076735;28;20054;-60
2021/11/30 10:28:18;;;;;;;13.20;6.63;;;;;;;;;;21085699;28;20048;-60
2021/11/30 10:38:22;;;;;;;12.73;6.53;;;;;;;;;;21094050;28;20043;-60
2021/11/30 10:48:28;;;;;;;15.00;7.13;;;;;;;;;;21097075;28;20055;-69
2021/11/30 10:58:31;;;;;;;12.50;6.97;;;;;;;;;;21088214;28;20047;-54
2021/11/30 11:08:39;;;;;;;11.23;6.45;;;;;;;;;;21087099;28;20052;-60
2021/11/30 11:18:44;;;;;;;9.02;5.47;;;;;;;;;;21085894;28;20047;-57
2021/11/30 11:28:46;;;;;;;11.57;6.60;;;;;;;;;;21085621;28;20101;-64
2021/11/30 11:38:47;;;;;;;14.38;8.32;;;;;;;;;;21083870;28;20086;-54
2021/11/30 11:48:55;;;;;;;15.85;9.48;;;;;;;;;;21084005;28;20051;-58
2021/11/30 11:59:08;;;;;;;11.50;6.72;;;;;;;;;;21082493;28;20419;-55
2021/11/30 12:09:12;;;;;;;13.18;9.05;;;;;;;;;;21083721;28;20173;-65
2021/11/30 12:19:27;;;;;;;17.00;8.00;;;;;;;;;;21063391;28;20044;-61
2021/11/30 12:29:29;;;;;;;;;;;;;;;;;;21080356;28;20051;-60
2021/11/30 12:39:50;;;;;;;8.85;5.43;;;;;;;;;;21080087;28;19919;-61
2021/11/30 12:49:53;;;;;;;16.35;6.53;;;;;;;;;;21077988;28;20052;-68
2021/11/30 13:00:16;;;;;;;10.27;4.88;;;;;;;;;;21078412;28;20056;-68
2021/11/30 13:10:18;;;;;;;9.32;5.57;;;;;;;;;;21061320;28;20051;-61
2021/11/30 13:20:24;;;;;;;10.77;5.45;;;;;;;;;;21077271;28;20048;-56
2021/11/30 13:30:32;;;;;;;5.20;3.60;;;;;;;;;;21079966;28;20071;-57
2021/11/30 13:40:35;;;;;;;5.97;3.38;;;;;;;;;;21076773;28;20063;-56
2021/11/30 13:50:42;;;;;;;12.23;5.95;;;;;;;;;;21058998;28;20151;-59
2021/11/30 14:11:15;;;;;;;10.50;5.30;;;;;;;;;;21076116;28;20131;-58
2021/11/30 14:21:17;;;;;;;8.45;4.07;;;;;;;;;;21092037;28;20389;-59
2021/11/30 14:31:19;;;;;;;6.30;3.30;;;;;;;;;;21089534;28;20054;-58
2021/11/30 14:41:22;;;;;;;6.50;4.82;;;;;;;;;;21089576;28;20056;-60
2021/11/30 14:51:31;;;;;;;8.10;4.57;;;;;;;;;;21088658;28;20059;-60
2021/11/30 15:01:44;;;;;;;6.38;4.63;;;;;;;;;;21087578;28;20052;-61
2021/11/30 15:11:49;;;;;;;6.43;3.70;;;;;;;;;;21086750;28;20204;-60
2021/11/30 15:22:12;;;;;;;6.45;4.07;;;;;;;;;;21085415;28;20044;-58
2021/11/30 15:32:23;;;;;;;6.57;3.53;;;;;;;;;;21085280;28;20044;-58
2021/11/30 15:42:25;;;;;;;5.72;3.13;;;;;;;;;;21084802;28;20051;-59
2021/11/30 15:52:29;;;;;;;8.68;4.43;;;;;;;;;;21083774;28;20069;-60
2021/11/30 16:02:32;;;;;;;7.38;4.30;;;;;;;;;;21082884;28;20056;-63
2021/11/30 16:12:34;;;;;;;9.80;4.50;;;;;;;;;;21082234;28;20044;-59
2021/11/30 16:22:36;;;;;;;4.53;3.47;;;;;;;;;;21081555;28;20411;-60
2021/11/30 16:32:39;;;;;;;6.65;4.20;;;;;;;;;;21080617;28;20083;-57
2021/11/30 16:42:42;;;;;;;9.80;5.43;;;;;;;;;;21079415;28;20052;-58
2021/11/30 16:52:45;;;;;;;9.50;5.40;;;;;;;;;;21080907;28;20079;-58
2021/11/30 17:02:47;;;;;;;12.10;6.28;;;;;;;;;;21078148;28;20086;-58
2021/11/30 17:12:51;;;;;;;9.50;5.78;;;;;;;;;;21075457;28;20102;-57
2021/11/30 17:22:54;;;;;;;17.33;5.97;;;;;;;;;;21075695;28;20130;-55
2021/11/30 17:32:56;;;;;;;14.32;7.50;;;;;;;;;;21077919;28;20052;-55
2021/11/30 17:43:00;;;;;;;23.53;12.43;;;;;;;;;;21093759;28;20109;-59
2021/11/30 17:53:03;;;;;;;19.58;9.98;;;;;;;;;;21093209;28;20129;-60
2021/11/30 18:03:05;;;;;;;18.75;11.23;;;;;;;;;;21092511;28;20090;-61
2021/11/30 18:13:07;;;;;;;22.23;11.05;;;;;;;;;;21073791;28;20074;-61
2021/11/30 18:23:10;;;;;;;16.92;11.35;;;;;;;;;;21091524;28;20060;-59
2021/11/30 18:33:12;;;;;;;16.30;8.82;;;;;;;;;;21090308;28;20139;-62
2021/11/30 18:43:14;;;;;;;19.02;8.00;;;;;;;;;;21089134;28;20052;-60
2021/11/30 18:53:17;;;;;;;12.13;6.88;;;;;;;;;;21070706;28;20094;-60
2021/11/30 19:03:20;;;;;;;20.15;9.45;;;;;;;;;;21088450;28;20052;-59
2021/11/30 19:13:23;;;;;;;24.17;14.52;;;;;;;;;;21087621;28;20138;-59
2021/11/30 19:23:26;;;;;;;51.22;26.50;;;;;;;;;;21086449;28;20059;-59
2021/11/30 19:33:29;;;;;;;18.88;9.43;;;;;;;;;;21085200;28;20166;-61
2021/11/30 19:43:34;;;;;;;35.80;18.95;;;;;;;;;;21084154;28;20056;-60
2021/11/30 19:53:36;;;;;;;;;;;;;;;;;;21084288;28;20048;-60
2021/11/30 20:13:59;;;;;;;17.60;8.63;;;;;;;;;;21081173;28;20483;-60
2021/11/30 20:24:03;;;;;;;25.45;12.68;;;;;;;;;;21080718;28;20101;-61
2021/11/30 20:34:08;;;;;;;15.48;9.75;;;;;;;;;;21080912;28;20357;-61
2021/11/30 20:44:11;;;;;;;;;;;;;;;;;;21080336;28;20085;-61
2021/11/30 20:54:15;;;;;;;22.55;9.32;;;;;;;;;;21078433;28;19923;-60
2021/11/30 21:04:18;;;;;;;24.43;11.40;;;;;;;;;;21077846;28;20066;-60
2021/11/30 21:14:20;;;;;;;21.20;12.75;;;;;;;;;;21079653;28;20393;-60
2021/11/30 21:24:23;;;;;;;13.48;6.93;;;;;;;;;;21059891;28;20048;-60
2021/11/30 21:34:26;;;;;;;19.73;7.90;;;;;;;;;;21076870;28;20055;-60
2021/11/30 21:44:33;;;;;;;10.27;5.75;;;;;;;;;;21075988;28;20130;-60
2021/11/30 21:54:35;;;;;;;20.85;10.77;;;;;;;;;;21075514;28;20051;-61
2021/11/30 22:04:37;;;;;;;12.05;7.43;;;;;;;;;;21076532;28;20093;-61
2021/11/30 22:14:39;;;;;;;24.27;13.90;;;;;;;;;;21075056;28;20040;-61
2021/11/30 22:24:42;;;;;;;21.20;11.57;;;;;;;;;;21084913;28;20113;-60
2021/11/30 22:34:44;;;;;;;27.50;16.55;;;;;;;;;;21090680;28;20055;-62
2021/11/30 22:44:47;;;;;;;15.23;7.60;;;;;;;;;;21089553;28;20055;-60
2021/11/30 22:54:54;;;;;;;24.77;13.23;;;;;;;;;;21089494;28;20104;-60
2021/11/30 23:04:56;;;;;;;14.32;7.70;;;;;;;;;;21089355;28;20063;-59
2021/11/30 23:14:58;;;;;;;12.00;6.10;;;;;;;;;;21087723;28;20477;-59
2021/11/30 23:25:07;;;;;;;8.13;4.97;;;;;;;;;;21087551;28;20048;-62
2021/11/30 23:35:16;;;;;;;10.55;5.50;;;;;;;;;;21085248;28;20085;-60
2021/11/30 23:45:18;;;;;;;9.00;5.18;;;;;;;;;;21085215;28;20083;-61
2021/11/30 23:55:21;;;;;;;6.97;4.80;;;;;;;;;;21085334;28;20055;-60
